Commerce City, CO (80037)

11:38 AM MDT on October 23, 2014 (GMT -0600)
Derby | Change Station
CLOSE
Current Station
Personal Weather Station
Location: Commerce City, CO
Elevation: 5138 ft
Nearby Weather Stations

Elev 5138 ft 39.84 °N, 104.92 °W | Updated 2 minutes ago

Partly Cloudy
Partly Cloudy
68.9 °F
Feels Like 68.9 °F
N
2.0
Wind Variable Wind from SW
Gusts 4.0 mph

Today
High -- | Low -- °F
--% Chance of Precip.
Yesterday
High -- | Low -- °F
Precip. -- in
7:18 AM 6:08 PM
Waning Crescent, 0% visible
Pressure 30.03 in
Visibility 10.0 miles
Clouds Few 8000 ft
Few 18000 ft
Scattered Clouds 25000 ft
Dew Point 34 °F
Humidity 27%
Rainfall 0.00 in
Snow Depth Not available.
UV 3 out of 12
Pollen 2.50 out of 12
PM2.5 Good
Flu Activity Sporadic
METAR KDEN 231653Z 22008KT 10SM FEW080 FEW180 SCT250 19/00 A3018 RMK AO2 SLP168 ACSL DSNT W T01890000

More Conditions Fewer Conditions

Pressure 30.03 in
Visibility 10.0 miles
Clouds Few 8000 ft
Few 18000 ft
Scattered Clouds 25000 ft
Dew Point 34 °F
Humidity 27%
Rainfall 0.00 in
Snow Depth Not available.
UV 3 out of 12
Pollen 2.50 out of 12
PM2.5 Good
Flu Activity Sporadic
METAR KDEN 231653Z 22008KT 10SM FEW080 FEW180 SCT250 19/00 A3018 RMK AO2 SLP168 ACSL DSNT W T01890000

More Conditions Fewer Conditions

10-Day Weather Forecast

Almanac

Astronomy

Oct. 23, 2014 Rise Set
Actual Time 7:18 AM MDT 6:08 PM MDT
Civil Twilight 6:50 AM MDT 6:36 PM MDT
Nautical Twilight 6:19 AM MDT 7:07 PM MDT
Astronomical Twilight 5:48 AM MDT 7:39 PM MDT
Moon 7:00 AM MDT 6:11 PM MDT
Length of Visible Light 11h 45m
Length of Day
10h 50m
Tomorrow will be 2m 25s shorter.
Waning Crescent, 0% of the Moon is Illuminated
Today
Waning Crescent
Oct 23
New
Oct 30
First Quarter
Nov 6
Full
Nov 14
Last Quarter

Today's Extremes

State Highs State Lows

Community

WunderPhotos

Upload Photos

1,764,321 photos uploaded!

WunderBlogs® & News

Nearby

Air Quality

  Air Quality AQ Index Pollutant
Yesterday Good
OZONE
Yesterday Good
PM10
Current Good
PM2.5
Thursday Good
OZONE
Thursday Good
PM2.5

Snow Depth

Station Depth Elevation
Niwot 0 in 9910 ft
University Camp 1 in 10300 ft
Copeland Lake 1 in 8600 ft
Wild Basin 0 in 9560 ft
Berthoud Summit 0 in 11300 ft

Earthquake Activity

City Distance Mag. Time & Date
No recent earthquake activity has been reported nearby.
Minimum magnitude displayed is 2.5.

Coastal Water Temperatures

Place Temperature
No Stations Reporting

Nearby Weather Stations